Time;durP1;ratioP1;P1;durP2;ratioP2;P2;SDS_P1;SDS_P2;PMS_P1;PMS_P2;Temp;Humidity;BMP_temperature;BMP_pressure;BME280_temperature;BME280_humidity;BME280_pressure;Samples;Min_cycle;Max_cycle;Signal;HPM_P1;HPM_P2
2023/07/24 00:01:15;;;;;;;8.85;5.72;;;17.20;99.90;;;;;;5074578;28;20047;-68
2023/07/24 00:03:41;;;;;;;8.13;5.18;;;17.20;99.90;;;;;;5074447;28;20040;-67
2023/07/24 00:06:06;;;;;;;7.97;5.18;;;17.10;99.90;;;;;;5074065;28;20495;-67
2023/07/24 00:08:32;;;;;;;11.52;6.70;;;17.20;99.90;;;;;;5074760;28;20510;-67
2023/07/24 00:10:57;;;;;;;8.40;5.50;;;17.10;99.90;;;;;;5074733;28;20426;-68
2023/07/24 00:13:23;;;;;;;10.50;6.53;;;17.20;99.90;;;;;;5073284;28;20043;-68
2023/07/24 00:15:49;;;;;;;13.55;6.05;;;17.00;99.90;;;;;;5074475;28;20112;-67
2023/07/24 00:18:14;;;;;;;9.32;5.20;;;17.20;99.90;;;;;;5074314;28;20036;-67
2023/07/24 00:20:40;;;;;;;8.32;5.43;;;17.10;99.90;;;;;;5074320;28;20126;-67
2023/07/24 00:23:05;;;;;;;10.57;5.18;;;17.00;99.90;;;;;;5074387;28;20132;-68
2023/07/24 00:25:31;;;;;;;10.27;6.05;;;17.20;99.90;;;;;;5074536;28;20062;-68
2023/07/24 00:27:56;;;;;;;8.95;5.50;;;17.20;99.90;;;;;;5074135;28;20086;-67
2023/07/24 00:30:22;;;;;;;11.57;5.38;;;17.20;99.90;;;;;;5074355;28;20051;-67
2023/07/24 00:32:47;;;;;;;12.77;6.07;;;17.00;99.90;;;;;;5074276;28;20592;-68
2023/07/24 00:35:13;;;;;;;11.88;5.65;;;17.00;99.90;;;;;;5074259;28;20453;-67
2023/07/24 00:37:38;;;;;;;10.90;6.28;;;17.10;99.90;;;;;;5073671;28;20426;-68
2023/07/24 00:40:05;;;;;;;12.25;5.00;;;17.00;99.90;;;;;;5074239;28;20043;-68
2023/07/24 00:42:30;;;;;;;9.25;5.75;;;17.20;99.90;;;;;;5074019;28;20503;-67
2023/07/24 00:44:56;;;;;;;10.10;5.25;;;17.00;99.90;;;;;;5074079;28;20075;-68
2023/07/24 00:47:22;;;;;;;9.30;6.10;;;17.10;99.90;;;;;;5073628;28;20071;-68
2023/07/24 00:49:49;;;;;;;11.50;6.20;;;16.90;99.90;;;;;;5073993;28;20446;-68
2023/07/24 00:52:15;;;;;;;12.13;5.88;;;16.90;99.90;;;;;;5073708;28;20036;-68
2023/07/24 00:54:41;;;;;;;9.77;6.15;;;16.90;99.90;;;;;;5073915;28;20105;-68
2023/07/24 00:57:07;;;;;;;10.98;6.07;;;17.10;99.90;;;;;;5073473;28;20048;-68
2023/07/24 00:59:33;;;;;;;9.30;5.50;;;16.90;99.90;;;;;;5073690;28;20437;-67
2023/07/24 01:01:59;;;;;;;13.15;6.53;;;16.80;99.90;;;;;;5079002;28;20035;-68
2023/07/24 01:04:25;;;;;;;10.98;6.43;;;17.10;99.90;;;;;;5083951;28;20044;-68
2023/07/24 01:06:50;;;;;;;12.05;6.55;;;17.00;99.90;;;;;;5091778;28;20051;-68
2023/07/24 01:09:16;;;;;;;12.90;6.32;;;17.00;99.90;;;;;;5093949;28;20036;-68
2023/07/24 01:11:50;;;;;;;10.75;6.25;;;17.00;99.90;;;;;;5093449;28;20043;-67
2023/07/24 01:14:36;;;;;;;11.98;6.40;;;16.80;99.90;;;;;;5092660;28;20063;-68
2023/07/24 01:17:06;;;;;;;15.63;6.22;;;16.80;99.90;;;;;;5093123;28;20441;-68
2023/07/24 01:19:44;;;;;;;10.95;6.28;;;17.00;99.90;;;;;;5085411;28;20071;-69
2023/07/24 01:22:18;;;;;;;9.90;6.35;;;16.70;99.90;;;;;;5093470;28;20415;-68
2023/07/24 01:25:05;;;;;;;11.02;6.28;;;16.90;99.90;;;;;;5093600;28;20042;-68
2023/07/24 01:27:30;;;;;;;10.38;6.22;;;17.00;99.90;;;;;;5092812;28;20081;-68
2023/07/24 01:29:56;;;;;;;11.65;7.07;;;16.90;99.90;;;;;;5093553;28;20528;-68
2023/07/24 01:32:22;;;;;;;13.10;7.22;;;16.60;99.90;;;;;;5092909;28;20047;-68
2023/07/24 01:34:48;;;;;;;10.80;7.30;;;16.70;99.90;;;;;;5093370;28;20039;-68
2023/07/24 01:37:14;;;;;;;13.68;8.65;;;16.80;99.90;;;;;;5092780;28;20124;-67
2023/07/24 01:39:45;;;;;;;14.05;8.10;;;16.80;99.90;;;;;;5093165;28;20047;-68
2023/07/24 01:42:12;;;;;;;14.95;8.20;;;16.70;99.90;;;;;;5091754;28;20039;-68
2023/07/24 01:44:37;;;;;;;12.48;8.60;;;16.80;99.90;;;;;;5093002;28;20111;-68
2023/07/24 01:47:03;;;;;;;12.95;7.88;;;16.70;99.90;;;;;;5092749;28;20463;-68
2023/07/24 01:49:29;;;;;;;12.10;8.38;;;16.50;99.90;;;;;;5092832;28;20406;-68
2023/07/24 01:51:55;;;;;;;15.32;9.43;;;16.50;99.90;;;;;;5091646;28;20076;-68
2023/07/24 01:54:20;;;;;;;17.25;9.30;;;16.50;99.90;;;;;;5092728;28;20032;-68
2023/07/24 01:56:46;;;;;;;14.88;10.00;;;16.50;99.90;;;;;;5092145;28;20119;-68
2023/07/24 01:59:11;;;;;;;12.57;8.77;;;16.60;99.90;;;;;;5092889;28;20048;-68
2023/07/24 02:01:37;;;;;;;14.73;10.02;;;16.60;99.90;;;;;;5092792;28;20040;-68
2023/07/24 02:04:02;;;;;;;15.70;10.30;;;16.80;99.90;;;;;;5092676;28;20028;-67
2023/07/24 02:06:28;;;;;;;18.35;11.68;;;16.60;99.90;;;;;;5090921;28;20032;-68
2023/07/24 02:08:53;;;;;;;15.48;10.93;;;16.60;99.90;;;;;;5091400;22;20139;-71
2023/07/24 02:11:19;;;;;;;14.98;11.13;;;16.70;99.90;;;;;;5071650;28;20045;-71
2023/07/24 02:13:45;;;;;;;15.02;9.43;;;16.50;99.90;;;;;;5070808;28;20051;-71
2023/07/24 02:16:11;;;;;;;16.70;10.07;;;16.60;99.90;;;;;;5070608;28;20036;-70
2023/07/24 02:18:38;;;;;;;17.13;10.10;;;16.70;99.90;;;;;;5072107;28;20058;-71
2023/07/24 02:21:04;;;;;;;17.55;10.15;;;16.80;99.90;;;;;;5070758;28;20037;-71
2023/07/24 02:23:29;;;;;;;14.48;10.20;;;16.80;99.90;;;;;;5072037;28;20040;-71
2023/07/24 02:25:55;;;;;;;15.05;9.50;;;16.80;99.90;;;;;;5070622;28;20040;-71
2023/07/24 02:28:21;;;;;;;15.07;9.95;;;16.80;99.90;;;;;;5070487;28;20393;-74
2023/07/24 02:30:47;;;;;;;12.60;9.23;;;16.80;99.90;;;;;;5070751;28;20036;-73
2023/07/24 02:33:12;;;;;;;14.15;10.20;;;16.70;99.90;;;;;;5054050;28;20448;-73
2023/07/24 02:35:40;;;;;;;20.58;10.20;;;16.70;99.90;;;;;;5070887;28;20028;-73
2023/07/24 02:38:05;;;;;;;15.18;8.60;;;16.80;99.90;;;;;;5053989;28;20041;-73
2023/07/24 02:40:31;;;;;;;12.10;9.27;;;16.60;99.90;;;;;;5070343;28;20048;-73
2023/07/24 02:42:56;;;;;;;15.80;9.23;;;16.80;99.90;;;;;;5053899;28;20411;-74
2023/07/24 02:45:22;;;;;;;27.83;9.55;;;16.90;99.90;;;;;;5069674;28;20040;-73
2023/07/24 02:47:47;;;;;;;17.40;9.43;;;16.70;99.90;;;;;;5070105;28;20041;-73
2023/07/24 02:50:13;;;;;;;16.50;8.68;;;16.70;99.90;;;;;;5071743;28;20040;-73
2023/07/24 02:52:39;;;;;;;13.60;9.25;;;17.00;99.90;;;;;;5070663;28;20040;-73
2023/07/24 02:55:04;;;;;;;13.88;9.02;;;16.90;99.90;;;;;;5070622;28;20170;-73
2023/07/24 02:57:30;;;;;;;11.55;8.35;;;16.80;99.90;;;;;;5070038;28;20040;-73
2023/07/24 02:59:56;;;;;;;13.60;8.70;;;16.70;99.90;;;;;;5071764;28;20036;-73
2023/07/24 03:02:21;;;;;;;12.77;8.75;;;16.90;99.90;;;;;;5071736;28;20086;-73
2023/07/24 03:04:47;;;;;;;12.05;8.63;;;16.70;99.90;;;;;;5071801;28;20044;-73
2023/07/24 03:07:12;;;;;;;12.93;8.63;;;16.90;99.90;;;;;;5069867;28;20040;-73
2023/07/24 03:09:38;;;;;;;12.82;8.18;;;16.80;99.90;;;;;;5070250;28;20059;-73
2023/07/24 03:12:03;;;;;;;12.70;8.40;;;16.70;99.90;;;;;;5070442;28;20399;-73
2023/07/24 03:14:29;;;;;;;14.20;8.27;;;17.00;99.90;;;;;;5071578;28;20484;-73
2023/07/24 03:16:55;;;;;;;15.18;8.55;;;16.90;99.90;;;;;;5070088;28;20119;-73
2023/07/24 03:19:20;;;;;;;12.10;8.55;;;16.70;99.90;;;;;;5071626;28;20067;-73
2023/07/24 03:21:46;;;;;;;12.88;8.13;;;16.70;99.90;;;;;;5070076;28;20109;-73
2023/07/24 03:24:11;;;;;;;13.25;9.13;;;16.70;99.90;;;;;;5071344;28;20040;-73
2023/07/24 03:26:37;;;;;;;14.50;8.95;;;16.90;99.90;;;;;;5071267;28;20044;-74
2023/07/24 03:29:04;;;;;;;11.80;8.48;;;16.90;99.90;;;;;;5070309;28;20052;-73
2023/07/24 03:31:30;;;;;;;12.45;8.82;;;16.60;99.90;;;;;;5070403;28;20045;-73
2023/07/24 03:33:55;;;;;;;13.35;9.23;;;16.90;99.90;;;;;;5070259;28;20052;-73
2023/07/24 03:36:21;;;;;;;15.13;8.45;;;16.90;99.90;;;;;;5071035;28;20036;-73
2023/07/24 03:38:46;;;;;;;14.48;8.68;;;16.90;99.90;;;;;;5071029;28;20036;-73
2023/07/24 03:41:12;;;;;;;13.40;8.32;;;16.70;99.90;;;;;;5069950;28;20056;-73
2023/07/24 03:43:37;;;;;;;12.88;8.23;;;16.60;99.90;;;;;;5070248;28;20072;-73
2023/07/24 03:46:03;;;;;;;12.43;8.63;;;16.60;99.90;;;;;;5069719;28;20412;-73
2023/07/24 03:48:29;;;;;;;11.70;8.38;;;16.70;99.90;;;;;;5069941;28;20595;-73
2023/07/24 03:50:59;;;;;;;13.32;8.10;;;16.80;99.90;;;;;;5069901;28;20487;-73
2023/07/24 03:53:25;;;;;;;12.02;8.43;;;16.70;99.90;;;;;;5069818;28;20406;-73
2023/07/24 03:55:51;;;;;;;11.05;8.57;;;16.70;99.90;;;;;;5071256;28;20040;-73
2023/07/24 03:58:16;;;;;;;13.30;9.20;;;17.00;99.90;;;;;;5073487;28;20483;-73
2023/07/24 04:00:42;;;;;;;13.23;9.02;;;17.00;99.90;;;;;;5073200;28;20044;-73
2023/07/24 04:03:07;;;;;;;14.70;8.98;;;17.00;99.90;;;;;;5073431;28;20043;-73
2023/07/24 04:05:34;;;;;;;15.23;9.20;;;17.00;99.90;;;;;;5073368;28;20090;-73
2023/07/24 04:08:00;;;;;;;12.57;8.98;;;16.80;99.90;;;;;;5073040;28;20029;-73
2023/07/24 04:10:26;;;;;;;14.50;9.20;;;16.70;99.90;;;;;;5073104;28;20559;-73
2023/07/24 04:12:51;;;;;;;12.25;9.02;;;17.00;99.90;;;;;;5056503;28;20051;-73
2023/07/24 04:15:17;;;;;;;12.95;9.20;;;17.00;99.90;;;;;;5073429;28;20558;-73
2023/07/24 04:17:43;;;;;;;11.60;9.32;;;16.70;99.90;;;;;;5056499;28;20503;-73
2023/07/24 04:20:09;;;;;;;13.07;8.80;;;16.80;99.90;;;;;;5073084;28;20041;-73
2023/07/24 04:22:35;;;;;;;13.07;9.68;;;16.80;99.90;;;;;;5073333;28;20032;-73
2023/07/24 04:25:00;;;;;;;13.27;10.00;;;17.00;99.90;;;;;;5056674;28;20043;-73
2023/07/24 04:27:26;;;;;;;13.18;9.15;;;16.80;99.90;;;;;;5072710;28;20040;-73
2023/07/24 04:29:51;;;;;;;13.75;9.95;;;17.00;99.90;;;;;;5072635;28;20174;-73
2023/07/24 04:32:17;;;;;;;13.15;9.13;;;16.90;99.90;;;;;;5073174;28;20040;-73
2023/07/24 04:34:43;;;;;;;11.98;8.40;;;16.90;99.90;;;;;;5072889;28;20131;-73
2023/07/24 04:37:08;;;;;;;11.25;8.48;;;17.10;99.90;;;;;;5072433;28;20036;-73
2023/07/24 04:39:34;;;;;;;10.90;8.43;;;17.10;99.90;;;;;;5072685;28;20040;-73
2023/07/24 04:41:59;;;;;;;13.25;9.65;;;17.10;99.90;;;;;;5056119;28;20032;-73
2023/07/24 04:44:25;;;;;;;13.48;8.88;;;16.90;99.90;;;;;;5072743;28;20389;-73
2023/07/24 04:46:51;;;;;;;14.50;8.55;;;17.00;99.90;;;;;;5072420;28;20037;-73
2023/07/24 04:49:16;;;;;;;13.98;9.32;;;16.90;99.90;;;;;;5072511;28;20043;-73
2023/07/24 04:51:42;;;;;;;13.13;9.25;;;16.90;99.90;;;;;;5072424;28;20415;-72
2023/07/24 04:54:07;;;;;;;11.75;9.10;;;17.20;99.90;;;;;;5056160;28;20033;-72
2023/07/24 04:56:33;;;;;;;12.02;8.73;;;17.20;99.90;;;;;;5072075;28;20581;-72
2023/07/24 04:58:59;;;;;;;12.00;8.63;;;17.20;99.90;;;;;;5072241;28;20048;-72
2023/07/24 05:01:24;;;;;;;10.88;8.55;;;17.20;99.90;;;;;;5072218;28;20093;-72
2023/07/24 05:03:50;;;;;;;11.93;8.55;;;16.90;99.90;;;;;;5072163;28;20128;-72
2023/07/24 05:06:15;;;;;;;10.57;8.60;;;17.20;99.90;;;;;;5071718;28;20415;-74
2023/07/24 05:08:41;;;;;;;11.85;8.93;;;16.90;99.90;;;;;;5071372;28;20389;-73
2023/07/24 05:11:06;;;;;;;12.73;9.23;;;17.20;99.90;;;;;;5072507;28;20048;-73
2023/07/24 05:13:32;;;;;;;12.77;8.50;;;17.00;99.90;;;;;;5055512;28;20062;-74
2023/07/24 05:15:58;;;;;;;11.52;8.23;;;17.00;99.90;;;;;;5071947;28;20040;-72
2023/07/24 05:18:23;;;;;;;12.38;7.95;;;17.20;99.90;;;;;;5055148;28;20032;-73
2023/07/24 05:20:51;;;;;;;13.63;8.25;;;16.90;99.90;;;;;;5072000;28;20076;-73
2023/07/24 05:23:17;;;;;;;13.27;8.88;;;17.00;99.90;;;;;;5072009;28;20720;-72
2023/07/24 05:25:42;;;;;;;11.68;8.43;;;17.00;99.90;;;;;;5071652;28;20090;-73
2023/07/24 05:28:08;;;;;;;10.82;8.15;;;17.20;99.90;;;;;;5055016;28;20079;-73
2023/07/24 05:30:34;;;;;;;13.38;9.00;;;17.20;99.90;;;;;;5072083;28;20044;-74
2023/07/24 05:33:03;;;;;;;12.15;8.35;;;17.10;99.90;;;;;;5071603;28;20064;-72
2023/07/24 05:35:28;;;;;;;12.23;8.77;;;17.20;99.90;;;;;;5071606;28;20037;-73
2023/07/24 05:37:54;;;;;;;10.95;7.57;;;17.00;99.90;;;;;;5071307;28;20036;-73
2023/07/24 05:40:19;;;;;;;11.50;8.27;;;17.10;99.90;;;;;;5071534;28;20041;-73
2023/07/24 05:42:46;;;;;;;14.77;8.75;;;17.40;99.90;;;;;;5071582;28;20050;-73
2023/07/24 05:45:12;;;;;;;14.20;8.98;;;17.30;99.90;;;;;;5053481;28;20087;-73
2023/07/24 05:47:37;;;;;;;12.32;8.82;;;17.20;99.90;;;;;;5056329;28;20037;-73
2023/07/24 05:50:03;;;;;;;11.57;8.85;;;17.30;99.90;;;;;;5051427;28;20045;-73
2023/07/24 05:52:29;;;;;;;13.77;9.85;;;17.20;99.90;;;;;;5051312;28;20176;-74
2023/07/24 05:54:55;;;;;;;10.80;8.52;;;17.50;99.90;;;;;;5051118;28;20037;-74
2023/07/24 05:57:20;;;;;;;11.02;7.75;;;17.50;99.90;;;;;;5050159;28;20495;-73
2023/07/24 05:59:46;;;;;;;11.88;8.95;;;17.30;99.90;;;;;;5051114;28;20040;-73
2023/07/24 06:02:11;;;;;;;13.38;8.15;;;17.50;99.90;;;;;;5051259;28;20179;-73
2023/07/24 06:04:37;;;;;;;12.63;8.05;;;17.50;99.90;;;;;;5051107;28;20056;-73
2023/07/24 06:07:03;;;;;;;14.13;8.25;;;17.30;99.90;;;;;;5050952;28;20040;-73
2023/07/24 06:09:29;;;;;;;12.35;7.90;;;17.50;99.90;;;;;;5051133;28;20041;-73
2023/07/24 06:11:54;;;;;;;12.07;8.75;;;17.30;99.90;;;;;;5052463;28;20043;-73
2023/07/24 06:14:20;;;;;;;10.70;8.25;;;17.30;99.90;;;;;;5051041;28;20417;-73
2023/07/24 06:16:46;;;;;;;11.85;8.32;;;17.50;99.90;;;;;;5051924;28;20055;-73
2023/07/24 06:19:11;;;;;;;13.73;8.77;;;17.60;99.90;;;;;;5050957;28;20077;-73
2023/07/24 06:21:37;;;;;;;13.25;9.13;;;17.50;99.90;;;;;;5050806;28;20527;-73
2023/07/24 06:24:02;;;;;;;13.98;9.35;;;17.30;99.90;;;;;;5052117;28;20579;-74
2023/07/24 06:26:29;;;;;;;15.02;9.15;;;17.30;99.90;;;;;;5050798;28;20037;-74
2023/07/24 06:28:54;;;;;;;13.45;8.98;;;17.50;99.90;;;;;;5034369;28;20464;-73
2023/07/24 06:31:20;;;;;;;14.20;8.55;;;17.30;99.90;;;;;;5050998;28;20123;-73
2023/07/24 06:33:46;;;;;;;12.82;8.60;;;17.40;99.90;;;;;;5050646;28;20041;-73
2023/07/24 06:36:12;;;;;;;13.98;8.48;;;17.60;99.90;;;;;;5050305;28;20136;-73
2023/07/24 06:38:42;;;;;;;13.93;9.30;;;17.40;99.90;;;;;;5050721;28;20512;-75
2023/07/24 06:41:07;;;;;;;11.00;8.38;;;17.50;99.90;;;;;;5050641;28;20045;-75
2023/07/24 06:43:33;;;;;;;19.05;9.63;;;17.70;99.90;;;;;;5050607;28;20116;-74
2023/07/24 06:45:59;;;;;;;11.10;8.45;;;17.90;99.90;;;;;;5051692;28;20043;-74
2023/07/24 06:48:24;;;;;;;14.73;8.48;;;17.80;99.90;;;;;;5050362;28;20037;-74
2023/07/24 06:50:50;;;;;;;13.52;8.77;;;17.60;99.90;;;;;;5050713;28;20501;-74
2023/07/24 06:53:15;;;;;;;18.80;10.05;;;17.80;99.90;;;;;;5050711;28;20043;-74
2023/07/24 06:55:41;;;;;;;17.15;9.25;;;17.90;99.90;;;;;;5050414;28;20124;-73
2023/07/24 06:58:07;;;;;;;14.30;8.45;;;17.60;99.90;;;;;;5050078;28;20045;-74
2023/07/24 07:00:32;;;;;;;12.40;8.50;;;18.00;99.90;;;;;;5050239;28;20076;-74
2023/07/24 07:02:58;;;;;;;13.93;8.40;;;17.90;99.90;;;;;;5050247;28;20037;-74
2023/07/24 07:05:24;;;;;;;12.15;9.30;;;17.70;99.90;;;;;;5033718;28;20037;-74
2023/07/24 07:07:49;;;;;;;13.75;8.43;;;17.70;99.90;;;;;;5033269;28;20048;-74
2023/07/24 07:10:15;;;;;;;12.05;8.02;;;18.00;99.90;;;;;;5033726;28;20044;-74
2023/07/24 07:12:40;;;;;;;13.25;8.38;;;17.80;99.90;;;;;;5050352;28;20412;-74
2023/07/24 07:15:07;;;;;;;14.73;8.50;;;17.90;99.90;;;;;;5033684;28;20043;-74
2023/07/24 07:17:32;;;;;;;15.68;9.15;;;18.10;99.90;;;;;;5049751;28;20041;-73
2023/07/24 07:19:58;;;;;;;14.35;8.98;;;18.00;99.90;;;;;;5050047;28;20072;-74
2023/07/24 07:22:23;;;;;;;13.65;8.90;;;17.90;99.90;;;;;;5033869;28;20044;-75
2023/07/24 07:24:52;;;;;;;14.85;9.48;;;18.20;99.90;;;;;;5050353;28;20056;-74
2023/07/24 07:27:17;;;;;;;11.32;8.70;;;18.10;99.90;;;;;;5049763;28;20492;-74
2023/07/24 07:29:44;;;;;;;20.10;9.60;;;17.90;99.90;;;;;;5051407;28;20063;-73
2023/07/24 07:32:09;;;;;;;13.35;8.32;;;18.20;99.90;;;;;;5054157;28;20040;-75
2023/07/24 07:34:35;;;;;;;18.52;8.98;;;18.10;99.90;;;;;;5054339;28;20546;-73
2023/07/24 07:37:01;;;;;;;12.07;8.68;;;18.10;99.90;;;;;;5053857;28;20048;-74
2023/07/24 07:39:27;;;;;;;10.90;7.90;;;18.30;99.90;;;;;;5054604;28;20041;-73
2023/07/24 07:41:52;;;;;;;14.32;8.93;;;18.20;99.90;;;;;;5054468;28;20313;-74
2023/07/24 07:44:18;;;;;;;11.95;8.20;;;18.40;99.90;;;;;;5054174;28;20069;-74
2023/07/24 07:46:44;;;;;;;14.48;8.38;;;18.50;99.90;;;;;;5036919;28;20443;-73
2023/07/24 07:49:09;;;;;;;14.80;8.63;;;18.30;99.90;;;;;;5054047;28;20076;-74
2023/07/24 07:51:35;;;;;;;17.20;9.23;;;18.40;99.90;;;;;;5053757;28;20041;-74
2023/07/24 07:54:00;;;;;;;17.77;8.80;;;18.50;99.90;;;;;;5053962;28;20091;-74
2023/07/24 07:56:26;;;;;;;19.00;8.35;;;18.70;99.90;;;;;;5053289;28;20522;-75
2023/07/24 07:58:51;;;;;;;10.80;8.00;;;18.50;99.90;;;;;;5036922;28;20044;-74
2023/07/24 08:01:17;;;;;;;13.23;8.60;;;18.70;99.90;;;;;;5053417;28;20132;-74
2023/07/24 08:03:42;;;;;;;17.38;8.80;;;18.90;99.90;;;;;;5053466;28;20266;-74
2023/07/24 08:06:08;;;;;;;17.40;8.90;;;18.60;99.90;;;;;;5053287;28;20191;-74
2023/07/24 08:08:33;;;;;;;13.57;8.27;;;18.70;99.90;;;;;;5053224;28;20041;-74
2023/07/24 08:11:04;;;;;;;15.35;9.00;;;18.80;99.90;;;;;;5053452;28;20052;-74
2023/07/24 08:13:30;;;;;;;14.63;8.52;;;18.60;99.90;;;;;;5053588;28;20064;-74
2023/07/24 08:15:56;;;;;;;15.13;8.07;;;18.80;99.90;;;;;;5036478;28;20496;-74
2023/07/24 08:18:21;;;;;;;14.30;7.93;;;18.80;99.90;;;;;;5052981;28;20037;-75
2023/07/24 08:20:47;;;;;;;13.77;8.38;;;18.60;99.90;;;;;;5053069;28;20049;-74
2023/07/24 08:23:12;;;;;;;11.30;7.65;;;19.00;99.90;;;;;;5053269;28;20068;-74
2023/07/24 08:25:38;;;;;;;13.68;7.60;;;18.80;99.90;;;;;;5036644;28;20040;-74
2023/07/24 08:28:04;;;;;;;14.38;9.02;;;18.80;99.90;;;;;;5052741;28;20087;-74
2023/07/24 08:30:31;;;;;;;11.75;7.00;;;19.00;99.90;;;;;;5053252;28;20449;-74
2023/07/24 08:32:57;;;;;;;11.85;7.78;;;18.80;99.90;;;;;;5052872;28;20047;-74
2023/07/24 08:35:23;;;;;;;11.18;6.60;;;18.90;99.90;;;;;;5052935;28;20048;-77
2023/07/24 08:37:48;;;;;;;12.07;6.50;;;18.80;99.90;;;;;;5035889;28;20032;-75
2023/07/24 08:40:15;;;;;;;14.10;7.93;;;19.10;99.90;;;;;;5036102;28;20037;-75
2023/07/24 08:42:43;;;;;;;10.43;6.90;;;18.90;99.90;;;;;;5034816;28;20496;-74
2023/07/24 08:45:13;;;;;;;14.18;6.65;;;19.00;99.90;;;;;;5052680;28;20037;-74
2023/07/24 08:47:42;;;;;;;11.23;6.65;;;19.30;99.90;;;;;;5035634;28;20041;-75
2023/07/24 08:50:11;;;;;;;10.55;7.13;;;19.40;99.90;;;;;;5052663;28;20041;-74
2023/07/24 08:52:37;;;;;;;10.93;6.75;;;19.40;99.90;;;;;;5052654;28;20051;-75
2023/07/24 08:55:04;;;;;;;12.63;7.63;;;19.50;99.90;;;;;;5052531;28;20095;-75
2023/07/24 08:57:30;;;;;;;14.35;7.20;;;19.30;99.90;;;;;;5052375;28;20405;-74
2023/07/24 08:59:56;;;;;;;15.20;8.00;;;19.50;99.90;;;;;;5052383;28;20037;-75
2023/07/24 09:02:21;;;;;;;14.98;7.00;;;19.30;99.90;;;;;;5052367;28;20081;-75
2023/07/24 09:04:47;;;;;;;10.02;7.20;;;19.30;99.90;;;;;;5052669;28;20041;-75
2023/07/24 09:07:13;;;;;;;11.82;7.68;;;19.30;99.90;;;;;;5051858;28;20039;-75
2023/07/24 09:09:40;;;;;;;11.20;7.68;;;19.50;99.90;;;;;;5052296;28;20041;-75
2023/07/24 09:12:06;;;;;;;12.15;7.95;;;19.30;99.90;;;;;;5052127;28;20040;-75
2023/07/24 09:14:31;;;;;;;12.88;7.88;;;19.10;99.90;;;;;;5052173;28;20399;-75
2023/07/24 09:17:08;;;;;;;15.52;7.68;;;19.20;99.90;;;;;;5051753;28;20037;-74
2023/07/24 09:19:34;;;;;;;12.63;6.95;;;19.40;99.90;;;;;;5052003;28;20500;-74
2023/07/24 09:22:12;;;;;;;12.93;8.07;;;19.40;99.90;;;;;;5052009;28;20045;-75
2023/07/24 09:24:38;;;;;;;15.73;8.77;;;19.50;99.90;;;;;;5051914;28;20123;-75
2023/07/24 09:27:06;;;;;;;13.02;9.18;;;19.50;99.90;;;;;;5051478;28;20123;-74
2023/07/24 09:29:33;;;;;;;13.52;8.70;;;19.80;99.90;;;;;;5035354;28;20062;-73
2023/07/24 09:32:01;;;;;;;13.98;8.05;;;20.10;99.90;;;;;;5051946;28;20475;-73
2023/07/24 09:34:27;;;;;;;12.60;8.10;;;20.30;99.90;;;;;;5035356;28;20079;-74
2023/07/24 09:36:53;;;;;;;14.65;9.10;;;20.50;99.90;;;;;;5051516;28;20543;-73
2023/07/24 09:39:26;;;;;;;13.77;8.45;;;20.60;99.90;;;;;;5051643;28;20052;-75
2023/07/24 09:41:52;;;;;;;12.10;8.05;;;20.50;99.90;;;;;;5051546;28;20036;-74
2023/07/24 09:44:18;;;;;;;12.98;7.55;;;20.40;99.90;;;;;;5051506;28;20072;-74
2023/07/24 09:46:44;;;;;;;9.82;7.15;;;20.60;99.90;;;;;;5069072;28;20072;-74
2023/07/24 09:49:10;;;;;;;11.38;7.07;;;20.60;99.90;;;;;;5071630;28;20051;-74
2023/07/24 09:51:37;;;;;;;13.07;7.57;;;20.50;99.90;;;;;;5071376;28;20051;-73
2023/07/24 09:54:17;;;;;;;14.15;7.90;;;20.40;99.90;;;;;;5070947;28;20044;-73
2023/07/24 09:56:43;;;;;;;11.77;7.55;;;20.20;99.90;;;;;;5071057;28;20051;-73
2023/07/24 09:59:12;;;;;;;11.70;7.80;;;20.10;99.90;;;;;;5071188;28;20048;-73
2023/07/24 10:01:38;;;;;;;14.65;8.20;;;20.10;99.90;;;;;;5071096;28;20143;-73
2023/07/24 10:04:04;;;;;;;12.98;7.93;;;20.40;99.90;;;;;;5071093;28;20078;-73
2023/07/24 10:06:31;;;;;;;11.45;7.03;;;20.30;99.90;;;;;;5071116;28;20076;-73
2023/07/24 10:08:58;;;;;;;12.02;7.00;;;20.20;99.90;;;;;;5071137;28;20028;-74
2023/07/24 10:11:25;;;;;;;11.90;7.03;;;20.30;99.90;;;;;;5054347;28;20466;-73
2023/07/24 10:13:51;;;;;;;11.93;6.57;;;20.60;99.90;;;;;;5054363;28;20055;-74
2023/07/24 10:16:16;;;;;;;13.98;7.25;;;20.60;99.90;;;;;;5070603;28;20514;-74
2023/07/24 10:18:45;;;;;;;16.45;7.35;;;20.50;99.90;;;;;;5070991;28;20048;-74
2023/07/24 10:21:11;;;;;;;11.23;6.65;;;20.60;99.90;;;;;;5070774;28;20049;-74
2023/07/24 10:23:46;;;;;;;9.73;6.25;;;20.50;99.90;;;;;;5054429;28;20033;-74
2023/07/24 10:26:12;;;;;;;10.90;6.25;;;21.10;99.90;;;;;;5070612;28;20044;-74
2023/07/24 10:28:39;;;;;;;11.50;5.80;;;21.30;99.90;;;;;;5070782;28;20036;-73
2023/07/24 10:31:20;;;;;;;10.95;6.13;;;21.70;99.90;;;;;;5070952;28;20044;-73
2023/07/24 10:33:48;;;;;;;10.18;5.60;;;21.60;99.90;;;;;;5070949;28;20127;-74
2023/07/24 10:36:19;;;;;;;8.55;5.60;;;21.40;99.90;;;;;;5069493;28;20405;-74
2023/07/24 10:38:46;;;;;;;10.80;7.00;;;21.30;99.90;;;;;;5070602;28;20044;-74
2023/07/24 10:41:12;;;;;;;12.30;6.30;;;20.90;99.90;;;;;;5071498;28;20581;-74
2023/07/24 10:43:46;;;;;;;12.75;5.63;;;20.80;99.90;;;;;;5070481;28;20044;-73
2023/07/24 10:46:12;;;;;;;10.27;7.05;;;20.60;99.90;;;;;;5053633;28;20590;-74
2023/07/24 10:48:41;;;;;;;9.93;5.80;;;20.80;99.90;;;;;;5070308;28;20044;-74
2023/07/24 10:51:09;;;;;;;12.75;6.25;;;20.90;99.90;;;;;;5070353;28;20048;-74
2023/07/24 10:53:38;;;;;;;8.70;5.53;;;21.30;99.90;;;;;;5071796;28;20044;-74
2023/07/24 10:56:05;;;;;;;10.52;5.30;;;21.50;99.90;;;;;;5070349;28;20482;-74
2023/07/24 10:58:31;;;;;;;10.02;6.03;;;22.00;99.90;;;;;;5052631;28;20036;-74
2023/07/24 11:00:58;;;;;;;8.13;5.88;;;22.30;99.90;;;;;;5070092;28;20556;-75
2023/07/24 11:03:24;;;;;;;13.82;6.72;;;22.40;99.90;;;;;;5053704;28;20044;-75
2023/07/24 11:05:50;;;;;;;12.68;6.57;;;22.50;99.90;;;;;;5069439;28;20041;-76
2023/07/24 11:08:18;;;;;;;9.35;6.03;;;22.40;99.90;;;;;;5053209;28;20047;-75
2023/07/24 11:10:48;;;;;;;13.05;6.40;;;22.30;99.90;;;;;;5070521;28;20579;-75
2023/07/24 11:13:15;;;;;;;8.73;5.90;;;22.20;99.90;;;;;;5052907;28;20049;-76
2023/07/24 11:15:40;;;;;;;8.63;6.03;;;22.10;99.90;;;;;;5069575;28;20130;-76
2023/07/24 11:18:09;;;;;;;7.38;5.85;;;22.10;99.90;;;;;;5069712;28;20080;-76
2023/07/24 11:20:38;;;;;;;11.85;5.63;;;21.90;99.90;;;;;;5053572;28;20041;-75
2023/07/24 11:23:04;;;;;;;11.65;4.80;;;21.80;99.90;;;;;;5070328;28;20044;-75
2023/07/24 11:25:30;;;;;;;8.00;5.07;;;21.90;99.90;;;;;;5052051;28;20144;-76
2023/07/24 11:27:55;;;;;;;9.27;5.10;;;21.90;99.90;;;;;;5063669;28;20036;-75
2023/07/24 11:30:22;;;;;;;10.90;5.93;;;21.80;99.90;;;;;;5042735;28;20512;-75
2023/07/24 11:32:48;;;;;;;7.30;4.55;;;21.60;99.90;;;;;;5067313;28;20458;-76
2023/07/24 11:35:15;;;;;;;9.00;5.32;;;21.60;99.90;;;;;;5070221;28;20136;-75
2023/07/24 11:37:40;;;;;;;8.75;5.28;;;21.60;99.90;;;;;;5070803;28;20036;-76
2023/07/24 11:40:10;;;;;;;9.60;5.00;;;21.70;99.90;;;;;;5069775;28;20473;-75
2023/07/24 11:42:45;;;;;;;6.82;5.28;;;21.70;99.90;;;;;;5070011;28;20036;-76
2023/07/24 11:45:11;;;;;;;9.50;5.47;;;21.70;99.90;;;;;;5069944;28;20072;-75
2023/07/24 11:47:44;;;;;;;8.70;5.30;;;21.80;99.90;;;;;;5052864;28;20035;-75
2023/07/24 11:50:10;;;;;;;9.73;4.57;;;21.90;99.90;;;;;;5069911;28;20037;-75
2023/07/24 11:52:45;;;;;;;8.52;4.90;;;21.90;99.90;;;;;;5059745;28;20091;-75
2023/07/24 11:55:16;;;;;;;9.38;5.50;;;21.80;99.90;;;;;;5041354;28;20044;-75
2023/07/24 11:57:42;;;;;;;8.45;5.63;;;21.80;99.90;;;;;;5069047;28;20040;-76
2023/07/24 12:00:19;;;;;;;8.18;5.70;;;21.90;99.90;;;;;;5069834;28;20036;-76
2023/07/24 12:02:45;;;;;;;11.10;5.57;;;22.10;99.90;;;;;;5069546;28;20032;-76
2023/07/24 12:05:11;;;;;;;8.55;5.25;;;22.20;99.90;;;;;;5069697;28;20036;-76
2023/07/24 12:07:37;;;;;;;9.95;5.22;;;22.00;99.90;;;;;;5069481;28;20127;-76
2023/07/24 12:10:04;;;;;;;9.05;5.75;;;21.90;99.90;;;;;;5069806;28;20032;-76
2023/07/24 12:12:44;;;;;;;8.75;5.55;;;21.70;99.90;;;;;;5069794;28;20044;-76
2023/07/24 12:15:11;;;;;;;10.35;5.88;;;21.70;99.90;;;;;;5053158;28;20067;-76
2023/07/24 12:17:37;;;;;;;8.60;5.82;;;21.50;99.90;;;;;;5071692;28;20105;-76
2023/07/24 12:20:05;;;;;;;10.30;5.70;;;21.50;99.90;;;;;;5073459;28;20033;-76
2023/07/24 12:22:32;;;;;;;10.38;4.88;;;21.50;99.90;;;;;;5056821;28;20638;-76
2023/07/24 12:24:58;;;;;;;8.98;6.05;;;21.80;99.90;;;;;;5073463;28;20428;-76
2023/07/24 12:27:24;;;;;;;6.78;5.38;;;21.70;99.90;;;;;;5072634;28;20036;-76
2023/07/24 12:29:51;;;;;;;10.50;6.22;;;21.70;99.90;;;;;;5073029;28;20047;-76
2023/07/24 12:32:16;;;;;;;9.40;5.70;;;21.70;99.90;;;;;;5072939;28;20048;-75
2023/07/24 12:34:42;;;;;;;6.95;5.40;;;21.80;99.90;;;;;;5072932;28;20040;-76